createdAt,value
2023-04-01T00:00:13.647Z,-0.6
2023-04-01T00:05:19.586Z,-0.7
2023-04-01T00:10:25.690Z,-0.8
2023-04-01T00:15:32.188Z,-0.9
2023-04-01T00:20:37.977Z,-0.9
2023-04-01T00:25:44.141Z,-0.9
2023-04-01T00:30:50.284Z,-0.8
2023-04-01T00:35:56.434Z,-0.9
2023-04-01T00:41:02.534Z,-1
2023-04-01T00:46:08.694Z,-1
2023-04-01T00:51:14.809Z,-0.8
2023-04-01T00:56:20.978Z,-0.7
2023-04-01T01:01:27.145Z,-0.6
2023-04-01T01:06:33.264Z,-0.7
2023-04-01T01:11:43.353Z,-1.1
2023-04-01T01:16:45.606Z,-1.1
2023-04-01T01:21:51.666Z,-1
2023-04-01T01:26:57.829Z,-1
2023-04-01T01:32:03.953Z,-0.8
2023-04-01T01:37:10.075Z,-0.6
2023-04-01T01:42:16.236Z,-0.9
2023-04-01T01:47:22.346Z,-1.1
2023-04-01T01:52:28.523Z,-1.3
2023-04-01T01:57:34.780Z,-1.3
2023-04-01T02:02:40.838Z,-1.3
2023-04-01T02:07:46.917Z,-1.3
2023-04-01T02:12:53.065Z,-1.3
2023-04-01T02:17:59.209Z,-1.2
2023-04-01T02:23:05.340Z,-1.2
2023-04-01T02:28:11.607Z,-1.2
2023-04-01T02:33:17.613Z,-1
2023-04-01T02:38:23.882Z,-1
2023-04-01T02:43:29.911Z,-1.2
2023-04-01T02:48:36.075Z,-1.3
2023-04-01T02:53:42.364Z,-1.2
2023-04-01T02:58:48.351Z,-1.3
2023-04-01T03:03:54.526Z,-1.2
2023-04-01T03:09:00.581Z,-1.3
2023-04-01T03:14:06.735Z,-1.4
2023-04-01T03:19:12.875Z,-1.2
2023-04-01T03:24:19.023Z,-1.3
2023-04-01T03:29:25.176Z,-1.3
2023-04-01T03:34:31.302Z,-1.3
2023-04-01T03:39:37.457Z,-1.2
2023-04-01T03:44:43.736Z,-1.2
2023-04-01T03:49:49.781Z,-1.1
2023-04-01T03:54:55.856Z,-1
2023-04-01T04:00:02.070Z,-1
2023-04-01T04:05:08.168Z,-1
2023-04-01T04:10:14.692Z,-1.1
2023-04-01T04:15:20.449Z,-1.1
2023-04-01T04:20:26.559Z,-1.4
2023-04-01T04:25:33.010Z,-1.3
2023-04-01T04:30:38.881Z,-1.3
2023-04-01T04:35:45.117Z,-1.1
2023-04-01T04:40:51.130Z,-1.1
2023-04-01T04:45:57.268Z,-1.2
2023-04-01T04:51:03.416Z,-1
2023-04-01T04:56:09.599Z,-1
2023-04-01T05:01:15.731Z,-1.1
2023-04-01T05:06:23.537Z,-1.2
2023-04-01T05:11:27.993Z,-1.2
2023-04-01T05:16:34.117Z,-1
2023-04-01T05:21:40.238Z,-1
2023-04-01T05:26:46.639Z,-1
2023-04-01T05:31:52.512Z,-1.1
2023-04-01T05:36:58.668Z,-1.1
2023-04-01T05:42:04.801Z,-1.2
2023-04-01T05:47:10.940Z,-1
2023-04-01T05:52:17.319Z,-0.8
2023-04-01T05:57:23.219Z,-0.6
2023-04-01T06:02:29.474Z,-0.8
2023-04-01T06:07:35.633Z,-0.7
2023-04-01T06:12:41.632Z,-0.6
2023-04-01T06:17:47.780Z,-0.5
2023-04-01T06:22:54.304Z,-0.2
2023-04-01T06:33:06.648Z,-0.1
2023-04-01T06:38:12.644Z,-0.1
2023-04-01T06:43:18.483Z,-0.2
2023-04-01T06:48:24.625Z,-0.3
2023-04-01T06:53:30.768Z,-0.1
2023-04-01T06:58:37.040Z,-0.3
2023-04-01T07:03:43.033Z,-0.3
2023-04-01T07:08:49.350Z,0
2023-04-01T07:13:55.447Z,-0.1
2023-04-01T07:19:01.740Z,0
2023-04-01T07:24:07.623Z,0.2
2023-04-01T07:29:13.803Z,0.4
2023-04-01T07:34:19.898Z,0.1
2023-04-01T07:39:26.032Z,0
2023-04-01T07:44:32.138Z,0.1
2023-04-01T07:49:38.323Z,0.3
2023-04-01T07:54:44.473Z,0.1
2023-04-01T08:04:56.814Z,0.9
2023-04-01T08:10:02.926Z,1.3
2023-04-01T08:15:09.029Z,1.9
2023-04-01T08:20:15.189Z,2.4
2023-04-01T08:25:21.283Z,2.2
2023-04-01T08:30:27.452Z,2.6
2023-04-01T08:35:34.940Z,3
2023-04-01T08:40:39.738Z,2.6
2023-04-01T08:45:45.916Z,2.5
2023-04-01T08:50:52.018Z,3.1
2023-04-01T08:55:58.172Z,3.3
2023-04-01T09:01:04.283Z,3.8
2023-04-01T09:06:10.466Z,3.7
2023-04-01T09:11:18.434Z,3.7
2023-04-01T09:16:22.837Z,4
2023-04-01T09:21:28.863Z,3.8
2023-04-01T09:26:35.030Z,3.5
2023-04-01T09:31:41.554Z,2.8
2023-04-01T09:36:47.290Z,3.6
2023-04-01T09:41:53.422Z,4.1
2023-04-01T09:46:59.577Z,4
2023-04-01T09:52:05.711Z,4.3
2023-04-01T09:57:11.934Z,4.9
2023-04-01T10:02:18.016Z,5.3
2023-04-01T10:07:24.148Z,5.5
2023-04-01T10:12:30.257Z,5.1
2023-04-01T10:17:36.443Z,4.9
2023-04-01T10:22:42.598Z,4.3
2023-04-01T10:27:48.729Z,4.6
2023-04-01T10:32:55.029Z,4.5
2023-04-01T10:38:00.990Z,4.2
2023-04-01T10:43:07.291Z,3.5
2023-04-01T10:48:13.246Z,3.6
2023-04-01T10:53:19.378Z,5.5
2023-04-01T10:58:25.529Z,4.6
2023-04-01T11:03:31.750Z,4.2
2023-04-01T11:08:37.812Z,4.9
2023-04-01T11:13:43.962Z,4.7
2023-04-01T11:18:50.062Z,4
2023-04-01T11:24:04.818Z,3.7
2023-04-01T11:29:02.370Z,3.5
2023-04-01T11:34:08.464Z,3.6
2023-04-01T11:39:14.760Z,3.6
2023-04-01T11:44:20.831Z,4.1
2023-04-01T11:49:26.911Z,4.4
2023-04-01T11:54:33.172Z,4.4
2023-04-01T11:59:39.190Z,3.8
2023-04-01T12:04:45.339Z,4
2023-04-01T12:09:51.488Z,4.3
2023-04-01T12:14:57.634Z,4.4
2023-04-01T12:20:03.744Z,4.6
2023-04-01T12:25:10.049Z,5.3
2023-04-01T12:30:16.062Z,5.2
2023-04-01T12:35:22.221Z,5.3
2023-04-01T12:40:28.361Z,5.3
2023-04-01T12:45:34.832Z,4.5
2023-04-01T12:50:40.623Z,4.4
2023-04-01T12:55:46.786Z,4.6
2023-04-01T13:00:53.031Z,4.9
2023-04-01T13:05:59.038Z,4.7
2023-04-01T13:11:05.233Z,4.1
2023-04-01T13:16:11.345Z,4.2
2023-04-01T13:21:17.549Z,4.2
2023-04-01T13:26:23.591Z,3.4
2023-04-01T13:31:29.778Z,2.9
2023-04-01T13:36:35.900Z,3.1
2023-04-01T13:41:42.048Z,3.2
2023-04-01T13:46:48.215Z,4.3
2023-04-01T13:51:54.299Z,5
2023-04-01T13:57:00.436Z,5
2023-04-01T14:02:06.617Z,4.9
2023-04-01T14:07:12.819Z,4.6
2023-04-01T14:12:18.903Z,4.3
2023-04-01T14:17:25.083Z,4.6
2023-04-01T14:22:31.172Z,4.1
2023-04-01T14:27:37.324Z,3.5
2023-04-01T14:32:43.457Z,3.6
2023-04-01T14:37:49.607Z,4
2023-04-01T14:42:55.768Z,4
2023-04-01T14:48:01.882Z,3.8
2023-04-01T14:53:08.010Z,3.1
2023-04-01T14:58:14.145Z,3.3
2023-04-01T15:03:20.605Z,2.9
2023-04-01T15:08:26.406Z,2.8
2023-04-01T15:13:32.556Z,2.4
2023-04-01T15:18:38.709Z,2
2023-04-01T15:23:44.835Z,1.8
2023-04-01T15:28:50.965Z,1.9
2023-04-01T15:33:57.344Z,2
2023-04-01T15:39:03.529Z,1.9
2023-04-01T15:44:09.628Z,2
2023-04-01T15:49:15.531Z,1.9
2023-04-01T15:54:21.705Z,2.1
2023-04-01T15:59:27.810Z,2.2
2023-04-01T16:04:33.933Z,2.1
2023-04-01T16:09:40.085Z,1.8
2023-04-01T16:14:56.534Z,1.7
2023-04-01T16:20:02.908Z,1.5
2023-04-01T16:25:08.805Z,1.3
2023-04-01T16:30:14.927Z,1.2
2023-04-01T16:35:21.036Z,1.2
2023-04-01T16:40:27.364Z,1.2
2023-04-01T16:45:33.334Z,1.3
2023-04-01T16:50:39.517Z,1
2023-04-01T16:55:45.630Z,1
2023-04-01T17:00:52.841Z,1.2
2023-04-01T17:05:57.909Z,1
2023-04-01T17:11:04.096Z,0.7
2023-04-01T17:16:10.211Z,0.5
2023-04-01T17:21:17.338Z,0.6
2023-04-01T17:26:22.602Z,0.6
2023-04-01T17:31:28.698Z,0.5
2023-04-01T17:36:34.819Z,0.5
2023-04-01T17:41:40.896Z,0.5
2023-04-01T17:46:47.181Z,0.5
2023-04-01T17:51:53.160Z,0.5
2023-04-01T17:56:59.331Z,0.4
2023-04-01T18:02:05.471Z,0.4
2023-04-01T18:07:11.580Z,0.4
2023-04-01T18:12:17.727Z,0.6
2023-04-01T18:17:23.906Z,0.4
2023-04-01T18:22:30.025Z,0.3
2023-04-01T18:27:36.150Z,0.3
2023-04-01T18:32:42.294Z,0.2
2023-04-01T18:37:48.431Z,0.3
2023-04-01T18:42:54.600Z,0.3
2023-04-01T18:48:00.723Z,0.1
2023-04-01T18:53:07.095Z,0.2
2023-04-01T18:58:12.988Z,0.3
2023-04-01T19:03:19.202Z,0.3
2023-04-01T19:08:25.269Z,0.3
2023-04-01T19:13:31.404Z,0.2
2023-04-01T19:18:37.528Z,0.1
2023-04-01T19:23:43.787Z,0
2023-04-01T19:28:49.828Z,0
2023-04-01T19:39:02.155Z,0.1
2023-04-01T19:44:08.273Z,0
2023-04-01T19:49:14.396Z,-0.1
2023-04-01T19:54:20.530Z,-0.1
2023-04-01T19:59:26.667Z,-0.2
2023-04-01T20:04:32.824Z,-0.2
2023-04-01T20:09:39.041Z,-0.2
2023-04-01T20:14:45.330Z,-0.2
2023-04-01T20:19:51.251Z,-0.3
2023-04-01T20:24:57.381Z,-0.3
2023-04-01T20:30:03.520Z,-0.4
2023-04-01T20:35:09.678Z,-0.5
2023-04-01T20:40:15.779Z,-0.5
2023-04-01T20:45:21.949Z,-0.5
2023-04-01T20:50:28.107Z,-0.8
2023-04-01T20:55:34.433Z,-0.9
2023-04-01T21:00:40.335Z,-1
2023-04-01T21:05:46.525Z,-0.7
2023-04-01T21:10:52.603Z,-0.7
2023-04-01T21:15:59.026Z,-0.8
2023-04-01T21:21:04.951Z,-1
2023-04-01T21:26:11.067Z,-1
2023-04-01T21:31:17.283Z,-0.9
2023-04-01T21:36:23.388Z,-0.9
2023-04-01T21:41:29.465Z,-0.7
2023-04-01T21:46:35.720Z,-0.6
2023-04-01T21:51:41.756Z,-0.4
2023-04-01T21:56:47.933Z,-0.3
2023-04-01T22:01:54.040Z,-0.5
2023-04-01T22:07:00.177Z,-0.5
2023-04-01T22:12:06.311Z,-0.5
2023-04-01T22:22:18.633Z,-0.4
2023-04-01T22:27:24.731Z,-0.4
2023-04-01T22:32:30.939Z,-0.2
2023-04-01T22:37:37.040Z,-0.1
2023-04-01T22:42:43.170Z,-0.1
2023-04-01T22:47:49.388Z,-0.3
2023-04-01T22:52:55.493Z,-0.4
2023-04-01T22:58:01.743Z,-0.4
2023-04-01T23:03:07.908Z,-0.4
2023-04-01T23:08:13.843Z,-0.3
2023-04-01T23:13:20.000Z,-0.3
2023-04-01T23:18:26.143Z,-0.3
2023-04-01T23:23:32.309Z,-0.3
2023-04-01T23:28:38.465Z,-0.3
2023-04-01T23:33:44.522Z,-0.4
2023-04-01T23:38:50.773Z,-0.4
2023-04-01T23:43:56.810Z,-0.4
2023-04-01T23:49:02.989Z,-0.6
2023-04-01T23:54:09.127Z,-0.6
2023-04-01T23:59:15.409Z,-0.5
